Time;durP1;ratioP1;P1;durP2;ratioP2;P2;SDS_P1;SDS_P2;PMS_P1;PMS_P2;Temp;Humidity;BMP_temperature;BMP_pressure;BME280_temperature;BME280_humidity;BME280_pressure;Samples;Min_cycle;Max_cycle;Signal;HPM_P1;HPM_P2
2023/05/03 00:00:35;;;;;;;2.10;1.90;;;;;;;17.74;55.95;97294.44;10403571;28;20033;-31
2023/05/03 00:05:36;;;;;;;1.93;1.70;;;;;;;17.71;55.79;97289.31;10408412;28;20046;-31
2023/05/03 00:10:36;;;;;;;2.38;2.05;;;;;;;17.74;55.75;97302.03;10407594;28;20060;-31
2023/05/03 00:15:37;;;;;;;1.60;1.50;;;;;;;17.74;55.87;97299.50;10407660;28;20571;-31
2023/05/03 00:20:37;;;;;;;3.10;2.80;;;;;;;17.80;60.42;97286.88;10408990;28;20029;-31
2023/05/03 00:25:37;;;;;;;3.40;3.07;;;;;;;17.91;60.66;97292.94;10407611;28;20497;-31
2023/05/03 00:30:38;;;;;;;2.33;2.10;;;;;;;17.93;59.55;97287.03;10408154;28;20092;-31
2023/05/03 00:35:38;;;;;;;2.37;2.17;;;;;;;17.86;58.92;97289.47;10405366;28;20033;-30
2023/05/03 00:40:38;;;;;;;2.53;2.30;;;;;;;17.80;56.83;97280.13;10417419;28;20124;-31
2023/05/03 00:45:39;;;;;;;1.70;1.60;;;;;;;17.76;56.50;97280.09;10407098;28;20113;-30
2023/05/03 00:50:40;;;;;;;1.90;1.80;;;;;;;17.75;56.43;97286.81;10407989;28;20044;-31
2023/05/03 00:55:42;;;;;;;1.70;1.60;;;;;;;17.73;56.32;97280.91;10407136;28;20056;-29
2023/05/03 01:00:42;;;;;;;1.88;1.77;;;;;;;17.74;56.10;97284.28;10407975;28;20087;-28
2023/05/03 01:06:10;;;;;;;1.98;1.77;;;;;;;17.74;56.08;97274.16;10414215;28;20029;-28
2023/05/03 01:11:15;;;;;;;2.33;2.13;;;;;;;17.72;55.91;97270.75;10416032;28;20432;-29
2023/05/03 01:16:22;;;;;;;2.35;1.60;;;;;;;17.71;55.97;97266.50;10410198;28;20492;-29
2023/05/03 01:21:24;;;;;;;2.70;1.50;;;;;;;17.72;55.92;97263.13;10413638;28;20037;-29
2023/05/03 01:26:26;;;;;;;2.30;2.10;;;;;;;17.72;56.52;97260.59;10413601;28;20037;-29
2023/05/03 01:31:50;;;;;;;4.03;2.95;;;;;;;17.85;60.94;97257.41;10414381;28;20038;-29
2023/05/03 01:36:56;;;;;;;3.10;2.70;;;;;;;17.89;60.75;97264.19;10414449;28;20029;-29
2023/05/03 01:41:58;;;;;;;2.25;2.15;;;;;;;17.86;59.64;97259.94;10407495;28;20038;-29
2023/05/03 01:46:58;;;;;;;2.10;2.00;;;;;;;17.77;57.91;97253.94;10405386;28;20386;-28
2023/05/03 01:51:58;;;;;;;2.05;1.90;;;;;;;17.74;57.09;97249.66;10413101;28;20116;-29
2023/05/03 01:57:00;;;;;;;2.80;1.70;;;;;;;17.74;56.44;97256.44;10413049;28;20086;-28
2023/05/03 02:02:00;;;;;;;2.10;1.80;;;;;;;17.71;56.31;97259.78;10412138;28;20037;-27
2023/05/03 02:07:01;;;;;;;1.97;1.80;;;;;;;17.71;56.07;97254.72;10412879;28;20048;-28
2023/05/03 02:12:01;;;;;;;2.17;1.57;;;;;;;17.71;56.37;97253.84;10411014;28;20086;-29
2023/05/03 02:17:02;;;;;;;1.80;1.70;;;;;;;17.71;56.07;97253.84;10410968;28;20445;-28
2023/05/03 02:22:02;;;;;;;1.37;1.27;;;;;;;17.70;56.13;97252.16;10412547;28;20029;-28
2023/05/03 02:27:31;;;;;;;1.70;1.60;;;;;;;17.68;56.08;97246.22;10410632;28;20033;-28
2023/05/03 02:32:31;;;;;;;1.70;1.60;;;;;;;17.69;56.07;97237.78;10403106;28;20076;-29
2023/05/03 02:37:32;;;;;;;2.50;2.30;;;;;;;17.80;60.13;97241.28;10412551;28;20029;-29
2023/05/03 02:42:35;;;;;;;2.95;2.65;;;;;;;17.86;60.27;97228.69;10409414;28;20040;-29
2023/05/03 02:47:36;;;;;;;3.78;2.40;;;;;;;17.87;59.50;97230.38;10410222;28;20036;-30
2023/05/03 02:52:36;;;;;;;1.95;1.85;;;;;;;17.82;59.25;97227.81;10411363;28;20029;-29
2023/05/03 02:57:38;;;;;;;2.88;2.47;;;;;;;17.75;57.27;97231.09;10409588;28;20038;-28
2023/05/03 03:02:40;;;;;;;1.85;1.67;;;;;;;17.73;57.13;97230.25;10409521;28;20045;-29
2023/05/03 03:07:41;;;;;;;2.13;1.70;;;;;;;17.72;56.71;97230.22;10409301;28;20040;-29
2023/05/03 03:12:42;;;;;;;1.60;1.50;;;;;;;17.71;56.67;97229.38;10408664;28;20033;-28
2023/05/03 03:17:45;;;;;;;1.60;1.50;;;;;;;17.70;56.19;97232.75;10409467;28;20104;-29
2023/05/03 03:22:46;;;;;;;3.35;2.60;;;;;;;17.71;56.66;97231.06;10410402;28;20444;-29
2023/05/03 03:27:47;;;;;;;1.58;1.48;;;;;;;17.70;56.53;97231.91;10407537;28;20409;-29
2023/05/03 03:32:47;;;;;;;1.80;1.70;;;;;;;17.69;56.29;97230.19;10410459;28;20030;-28
2023/05/03 03:37:56;;;;;;;1.90;1.80;;;;;;;17.68;55.82;97234.41;10408591;28;20021;-29
2023/05/03 03:42:57;;;;;;;2.25;2.05;;;;;;;17.64;56.72;97226.75;10398907;28;20460;-29
2023/05/03 03:47:59;;;;;;;2.53;2.33;;;;;;;17.76;60.31;97237.88;10406884;28;20030;-29
2023/05/03 03:53:00;;;;;;;4.65;2.10;;;;;;;17.86;60.24;97238.81;10406884;28;20029;-28
2023/05/03 03:58:01;;;;;;;2.50;2.10;;;;;;;17.85;59.20;97237.13;10405954;28;20428;-31
2023/05/03 04:03:05;;;;;;;1.77;1.67;;;;;;;17.80;56.16;97238.75;10407305;28;20782;-30
2023/05/03 04:08:06;;;;;;;2.25;1.70;;;;;;;17.79;55.96;97244.66;10404864;28;20091;-29
2023/05/03 04:13:08;;;;;;;2.65;1.70;;;;;;;17.81;55.40;97248.03;10406605;28;20029;-28
2023/05/03 04:18:09;;;;;;;1.67;1.58;;;;;;;17.82;55.55;97248.06;10404619;28;20024;-29
2023/05/03 04:23:12;;;;;;;1.60;1.48;;;;;;;17.84;55.45;97250.63;10404485;28;20025;-29
2023/05/03 04:28:14;;;;;;;1.97;1.43;;;;;;;17.86;55.58;97248.97;10406172;28;20472;-29
2023/05/03 04:33:19;;;;;;;1.92;1.77;;;;;;;17.86;55.74;97238.81;10406201;28;20633;-30
2023/05/03 04:38:21;;;;;;;3.28;2.10;;;;;;;17.83;56.56;97243.88;10405853;28;20033;-30
2023/05/03 04:43:22;;;;;;;6.38;4.07;;;;;;;17.52;56.89;97241.81;10402686;28;20036;-29
2023/05/03 04:48:23;;;;;;;8.32;3.80;;;;;;;17.44;56.28;97241.72;10406539;28;20036;-29
2023/05/03 04:53:23;;;;;;;8.23;3.47;;;;;;;17.65;57.02;97251.28;10407335;28;20542;-29
2023/05/03 04:58:38;;;;;;;5.82;3.55;;;;;;;17.80;58.80;97256.47;10404781;28;20034;-31
2023/05/03 05:03:40;;;;;;;7.03;2.88;;;;;;;17.87;59.36;97250.66;10406015;28;20037;-28
2023/05/03 05:08:46;;;;;;;2.53;1.85;;;;;;;17.86;55.63;97248.97;10405644;28;20404;-28
2023/05/03 05:13:48;;;;;;;3.65;2.00;;;;;;;17.86;55.72;97254.03;10405157;28;20037;-30
2023/05/03 05:18:48;;;;;;;3.50;2.45;;;;;;;17.84;55.41;97253.16;10406836;28;20033;-29
2023/05/03 05:23:50;;;;;;;4.75;2.30;;;;;;;17.85;55.57;97257.41;10421882;28;20088;-29
2023/05/03 05:28:53;;;;;;;13.85;4.15;;;;;;;17.79;55.89;97257.31;10405799;28;20550;-29
2023/05/03 05:33:54;;;;;;;8.00;4.00;;;;;;;17.41;54.93;97256.88;10406685;28;20033;-29
2023/05/03 05:38:54;;;;;;;8.25;3.50;;;;;;;17.63;55.13;97258.84;10404841;28;20033;-29
2023/05/03 05:43:57;;;;;;;6.80;3.30;;;;;;;17.70;54.87;97264.81;10404628;28;20044;-28
2023/05/03 05:48:58;;;;;;;5.80;3.00;;;;;;;17.71;54.66;97257.25;10408423;28;20704;-29
2023/05/03 05:53:58;;;;;;;4.10;2.67;;;;;;;17.73;54.81;97264.88;10410031;28;20029;-28
2023/05/03 05:58:59;;;;;;;6.72;3.90;;;;;;;17.71;54.98;97254.72;10404274;28;20087;-28
2023/05/03 06:04:00;;;;;;;7.07;2.95;;;;;;;17.79;58.42;97253.13;10413628;28;20396;-29
2023/05/03 06:09:01;;;;;;;8.82;2.78;;;;;;;17.83;58.96;97254.84;10411887;28;20044;-28
2023/05/03 06:14:02;;;;;;;5.97;2.53;;;;;;;17.85;57.38;97248.13;10411132;28;20055;-28
2023/05/03 06:19:04;;;;;;;6.60;2.50;;;;;;;17.80;55.40;97244.69;10411889;28;20040;-29
2023/05/03 06:24:05;;;;;;;4.28;2.30;;;;;;;17.79;55.53;97242.13;10407916;28;20029;-29
2023/05/03 06:29:06;;;;;;;2.28;1.73;;;;;;;17.77;55.56;97238.72;10411758;28;20025;-29
2023/05/03 06:34:08;;;;;;;2.53;1.90;;;;;;;17.77;55.42;97238.72;10410951;28;20029;-28
2023/05/03 06:39:10;;;;;;;1.98;1.77;;;;;;;17.76;55.31;97242.09;10410318;28;20228;-29
2023/05/03 06:44:10;;;;;;;3.42;1.92;;;;;;;17.74;55.09;97238.72;10411036;28;20208;-29
2023/05/03 06:49:11;;;;;;;2.42;2.03;;;;;;;17.74;55.28;97243.78;10404889;28;20490;-28
2023/05/03 06:54:12;;;;;;;1.70;1.60;;;;;;;17.72;55.32;97230.22;10410307;28;20107;-29
2023/05/03 06:59:12;;;;;;;2.20;1.77;;;;;;;17.72;55.34;97230.22;10410005;28;20037;-29
2023/05/03 07:04:12;;;;;;;4.07;1.93;;;;;;;17.72;55.30;97225.16;10411317;28;20296;-29
2023/05/03 07:09:13;;;;;;;3.50;2.42;;;;;;;17.77;58.39;97213.41;10410620;28;20033;-29
2023/05/03 07:14:13;;;;;;;5.90;2.70;;;;;;;17.84;59.79;97197.44;10409553;28;20030;-29
2023/05/03 07:19:13;;;;;;;2.60;2.28;;;;;;;17.86;59.67;97199.16;10411084;28;20029;-29
2023/05/03 07:24:14;;;;;;;2.67;2.00;;;;;;;17.82;56.88;97197.41;10409643;28;20025;-30
2023/05/03 07:29:14;;;;;;;1.70;1.60;;;;;;;17.78;55.75;97184.72;10408992;28;20029;-29
2023/05/03 07:34:17;;;;;;;3.00;1.63;;;;;;;17.74;55.77;97183.00;10409852;28;20036;-30
2023/05/03 07:39:18;;;;;;;2.75;1.73;;;;;;;17.73;55.76;97178.75;10410374;28;20084;-29
2023/05/03 07:44:18;;;;;;;1.35;1.25;;;;;;;17.71;55.52;97177.88;10401429;28;20026;-31
2023/05/03 07:49:18;;;;;;;1.80;1.70;;;;;;;17.70;55.56;97171.97;10409737;28;20030;-29
2023/05/03 07:54:19;;;;;;;1.67;1.57;;;;;;;17.71;55.77;97165.22;10406485;28;20033;-30
2023/05/03 07:59:19;;;;;;;2.33;1.67;;;;;;;17.70;55.67;97177.06;10401173;28;20037;-30
2023/05/03 08:04:20;;;;;;;1.92;1.40;;;;;;;17.71;55.42;97175.34;10409183;28;20037;-29
2023/05/03 08:09:20;;;;;;;3.20;1.70;;;;;;;17.71;55.65;97188.00;10408650;28;20108;-29
2023/05/03 08:14:21;;;;;;;1.53;1.43;;;;;;;17.71;55.68;97188.00;10407146;28;20048;-29
2023/05/03 08:19:22;;;;;;;3.20;1.95;;;;;;;17.82;59.39;97196.59;10409036;28;20287;-29
2023/05/03 08:24:22;;;;;;;2.60;2.00;;;;;;;17.87;60.11;97197.47;10405082;28;20405;-34
2023/05/03 08:29:23;;;;;;;1.95;1.80;;;;;;;17.86;58.87;97189.03;10407489;28;20744;-29
2023/05/03 08:34:24;;;;;;;1.50;1.40;;;;;;;17.79;56.77;97187.28;10408004;28;20034;-29
2023/05/03 08:39:29;;;;;;;1.67;1.35;;;;;;;17.74;56.09;97177.94;10408077;28;20025;-29
2023/05/03 08:44:33;;;;;;;1.65;1.50;;;;;;;17.74;56.06;97170.34;10405467;28;20029;-29
2023/05/03 08:49:35;;;;;;;1.70;1.55;;;;;;;17.72;56.13;97174.50;10406831;28;20038;-29
2023/05/03 08:54:35;;;;;;;1.70;1.55;;;;;;;17.72;55.79;97189.69;10407766;28;20481;-29
2023/05/03 08:59:46;;;;;;;2.10;1.50;;;;;;;17.70;55.90;97181.25;10407148;28;20038;-29
2023/05/03 09:04:46;;;;;;;1.40;1.30;;;;;;;17.71;55.90;97188.00;10407798;28;20052;-29
2023/05/03 09:09:46;;;;;;;2.00;1.47;;;;;;;17.71;55.65;97190.53;10407672;28;20124;-29
2023/05/03 09:14:47;;;;;;;1.80;1.50;;;;;;;17.71;55.79;97193.06;10406563;28;20056;-29
2023/05/03 09:19:52;;;;;;;1.73;1.63;;;;;;;17.67;55.63;97197.25;10405704;28;20067;-29
2023/05/03 09:24:55;;;;;;;3.53;2.03;;;;;;;17.79;59.47;97191.47;10403435;28;20377;-29
2023/05/03 09:29:55;;;;;;;2.03;1.60;;;;;;;17.86;59.99;97198.31;10414638;28;20068;-30
2023/05/03 09:35:08;;;;;;;1.60;1.50;;;;;;;17.84;58.73;97182.25;10414564;28;20029;-29
2023/05/03 09:40:10;;;;;;;1.92;1.63;;;;;;;17.76;56.74;97184.69;10414378;28;20479;-29
2023/05/03 09:45:10;;;;;;;2.58;1.17;;;;;;;17.74;56.00;97180.47;10411850;28;20073;-31
2023/05/03 09:50:11;;;;;;;1.60;1.50;;;;;;;17.72;56.03;97174.50;10414473;28;20124;-29
2023/05/03 09:55:15;;;;;;;2.65;1.60;;;;;;;17.68;55.82;97172.78;10412652;28;20371;-29
2023/05/03 10:00:16;;;;;;;1.30;1.20;;;;;;;17.70;55.90;97179.59;10411374;28;20033;-31
2023/05/03 10:05:19;;;;;;;1.17;1.08;;;;;;;17.67;55.67;97166.03;10414241;28;20448;-29
2023/05/03 10:10:20;;;;;;;1.65;1.20;;;;;;;17.68;55.76;97162.66;10413453;28;20104;-30
2023/05/03 10:15:21;;;;;;;1.75;1.30;;;;;;;17.69;55.91;97170.28;10411762;28;20034;-29
2023/05/03 10:20:46;;;;;;;1.40;1.30;;;;;;;17.69;55.86;97159.28;10406274;28;20029;-29
2023/05/03 10:26:06;;;;;;;1.27;1.17;;;;;;;17.66;55.54;97151.69;10408850;28;20060;-29
2023/05/03 10:31:45;;;;;;;1.70;1.60;;;;;;;17.79;59.91;97161.06;10404370;28;20036;-29
2023/05/03 10:36:49;;;;;;;1.55;1.42;;;;;;;17.85;60.04;97162.00;10408763;28;20064;-29
2023/05/03 10:42:02;;;;;;;1.58;1.48;;;;;;;17.86;58.90;97156.09;10408273;28;20155;-30
2023/05/03 10:47:13;;;;;;;1.80;1.70;;;;;;;17.79;57.37;97140.81;10407714;28;20033;-29
2023/05/03 10:52:44;;;;;;;1.38;1.10;;;;;;;17.75;56.01;97139.09;10410791;28;20761;-29
2023/05/03 10:57:46;;;;;;;1.42;1.33;;;;;;;17.77;56.09;97132.38;10410214;28;20067;-30
2023/05/03 11:03:22;;;;;;;1.20;1.10;;;;;;;17.77;55.56;97127.31;10410215;28;20044;-30
2023/05/03 11:08:28;;;;;;;1.10;1.00;;;;;;;17.77;55.63;97123.09;10410858;28;20032;-31
2023/05/03 11:13:29;;;;;;;1.25;1.15;;;;;;;17.76;55.65;97120.53;10410066;28;20103;-29
2023/05/03 11:18:30;;;;;;;1.40;1.30;;;;;;;17.79;55.78;97121.41;10411364;28;20080;-29
2023/05/03 11:23:31;;;;;;;3.45;1.23;;;;;;;17.78;56.00;97108.72;10410031;28;20033;-29
2023/05/03 11:28:31;;;;;;;3.67;1.07;;;;;;;17.78;55.42;97108.72;10409433;28;20392;-29
2023/05/03 11:33:36;;;;;;;3.67;1.20;;;;;;;17.80;55.56;97107.06;10409789;28;20284;-29
2023/05/03 11:38:38;;;;;;;2.20;1.95;;;;;;;17.88;59.55;97105.44;10404991;28;20037;-30
2023/05/03 11:43:43;;;;;;;9.55;5.82;;;;;;;17.93;59.96;97099.56;10406588;28;20120;-29
2023/05/03 11:48:44;;;;;;;5.60;5.05;;;;;;;17.93;57.87;97098.75;10409096;28;20033;-30
2023/05/03 11:53:47;;;;;;;2.92;2.67;;;;;;;17.88;56.03;97095.31;10409009;28;20124;-29
2023/05/03 11:58:58;;;;;;;2.30;2.10;;;;;;;17.84;55.79;97098.66;10408605;28;20060;-29
2023/05/03 12:04:00;;;;;;;2.70;2.50;;;;;;;17.81;56.11;97098.63;10409123;28;20117;-29
2023/05/03 12:09:02;;;;;;;2.97;2.72;;;;;;;17.80;55.91;97102.84;10408782;28;20052;-30
2023/05/03 12:14:02;;;;;;;3.55;2.92;;;;;;;17.79;55.81;97096.09;10407899;28;20505;-29
2023/05/03 12:19:02;;;;;;;3.30;3.00;;;;;;;17.79;55.65;97085.09;10408941;28;20037;-29
2023/05/03 12:24:03;;;;;;;3.33;2.90;;;;;;;17.77;55.88;97087.63;10407665;28;20779;-30
2023/05/03 12:29:04;;;;;;;4.28;3.20;;;;;;;17.76;55.68;97074.97;10405744;28;20064;-30
2023/05/03 12:34:04;;;;;;;2.90;2.60;;;;;;;17.76;55.69;97074.97;10408176;28;20041;-29
2023/05/03 12:39:07;;;;;;;3.40;3.10;;;;;;;17.74;55.76;97063.97;10403957;28;20099;-29
2023/05/03 12:44:07;;;;;;;5.80;5.25;;;;;;;17.83;57.81;97081.78;10404355;28;20327;-29
2023/05/03 12:49:08;;;;;;;4.20;3.50;;;;;;;17.89;57.35;97075.06;10408229;28;20041;-29
2023/05/03 12:54:10;;;;;;;3.80;3.28;;;;;;;17.90;57.20;97064.09;10407478;28;20049;-29
2023/05/03 12:59:11;;;;;;;3.35;2.83;;;;;;;17.85;55.90;97057.31;10412203;28;20040;-30
2023/05/03 13:04:11;;;;;;;2.97;2.35;;;;;;;17.81;56.07;97053.03;10416253;28;20489;-29
2023/05/03 13:09:15;;;;;;;2.92;2.45;;;;;;;17.79;55.58;97045.44;10415399;28;20037;-30
2023/05/03 13:14:15;;;;;;;2.30;2.10;;;;;;;17.77;55.77;97031.06;10412437;28;20037;-30
2023/05/03 13:19:16;;;;;;;2.72;2.40;;;;;;;17.78;55.60;97037.81;10416006;28;20080;-31
2023/05/03 13:24:16;;;;;;;9.05;3.13;;;;;;;17.80;56.17;97029.41;10415019;28;20041;-29
2023/05/03 13:29:17;;;;;;;3.92;2.25;;;;;;;17.79;56.00;97025.19;10411766;28;20029;-29
2023/05/03 13:34:17;;;;;;;3.10;2.80;;;;;;;17.77;55.74;97013.34;10414886;28;20342;-29
2023/05/03 13:39:17;;;;;;;7.50;2.20;;;;;;;17.74;55.77;97003.19;10414524;28;20096;-29
2023/05/03 13:44:18;;;;;;;2.10;1.90;;;;;;;17.76;55.73;97009.13;10413778;28;20128;-29
2023/05/03 13:49:18;;;;;;;4.93;2.27;;;;;;;17.79;57.08;97004.91;10414609;28;20071;-29
2023/05/03 13:54:19;;;;;;;3.47;2.70;;;;;;;17.88;56.72;96994.00;10413654;28;20033;-29
2023/05/03 13:59:19;;;;;;;3.00;2.53;;;;;;;17.91;56.63;96978.84;10413261;28;20037;-29
2023/05/03 14:04:20;;;;;;;3.20;2.30;;;;;;;17.88;56.27;96986.41;10413684;28;20037;-30
2023/05/03 14:09:20;;;;;;;3.63;1.73;;;;;;;17.83;55.69;96980.47;10412481;28;20036;-29
2023/05/03 14:14:21;;;;;;;2.63;1.80;;;;;;;17.79;55.97;96979.59;10412340;28;20408;-29
2023/05/03 14:19:21;;;;;;;2.35;2.03;;;;;;;17.79;55.88;96974.53;10413974;28;20045;-29
2023/05/03 14:24:21;;;;;;;2.83;1.58;;;;;;;17.75;55.84;96964.38;10412471;28;20428;-30
2023/05/03 14:29:22;;;;;;;3.07;2.60;;;;;;;17.77;55.73;96967.75;10412490;28;20409;-29
2023/05/03 14:34:22;;;;;;;1.63;1.52;;;;;;;17.76;55.72;96955.94;10412611;28;20091;-29
2023/05/03 14:39:23;;;;;;;1.90;1.80;;;;;;;17.75;55.83;96956.78;10412223;28;20038;-29
2023/05/03 14:44:25;;;;;;;3.65;1.70;;;;;;;17.74;55.40;96957.63;10411462;28;20056;-29
2023/05/03 14:49:26;;;;;;;1.98;1.75;;;;;;;17.76;55.50;96958.47;10413222;28;20113;-29
2023/05/03 14:54:26;;;;;;;1.30;1.20;;;;;;;17.74;55.70;96950.84;10411525;28;20160;-29
2023/05/03 14:59:27;;;;;;;8.20;2.13;;;;;;;17.87;57.94;96956.84;10408558;28;20038;-30
2023/05/03 15:04:28;;;;;;;3.75;1.98;;;;;;;17.93;57.56;96956.88;10412651;28;20231;-29
2023/05/03 15:09:33;;;;;;;2.85;1.63;;;;;;;17.90;56.34;96951.81;10411847;28;20045;-30
2023/05/03 15:14:34;;;;;;;1.90;1.70;;;;;;;17.84;55.74;96956.84;10409902;28;20074;-29
2023/05/03 15:19:34;;;;;;;1.60;1.50;;;;;;;17.81;55.64;96952.59;10412879;28;20064;-29
2023/05/03 15:24:34;;;;;;;1.40;1.30;;;;;;;17.79;55.71;96949.22;10402104;28;20040;-29
2023/05/03 15:29:35;;;;;;;2.60;1.27;;;;;;;17.76;55.74;96953.41;10411060;28;20042;-29
2023/05/03 15:34:36;;;;;;;5.53;1.70;;;;;;;17.75;55.59;96957.59;10409244;28;20032;-29
2023/05/03 15:39:37;;;;;;;5.40;1.70;;;;;;;17.75;55.60;96961.84;10409842;28;20592;-30
2023/05/03 15:44:37;;;;;;;3.78;2.08;;;;;;;17.74;55.72;96965.22;10405114;28;20034;-29
2023/05/03 15:49:37;;;;;;;4.73;1.50;;;;;;;17.73;55.61;96964.34;10411433;28;20045;-30
2023/05/03 15:54:38;;;;;;;2.27;1.20;;;;;;;17.74;55.46;96965.22;10409972;28;20436;-30
2023/05/03 15:59:38;;;;;;;2.40;1.20;;;;;;;17.76;55.66;96961.00;10405485;28;20120;-29
2023/05/03 16:04:38;;;;;;;12.37;2.97;;;;;;;17.87;58.38;96959.38;10405338;28;20401;-29
2023/05/03 16:09:41;;;;;;;4.40;2.10;;;;;;;17.95;59.08;96962.81;10409659;28;20106;-29
2023/05/03 16:14:41;;;;;;;2.00;1.40;;;;;;;17.96;56.12;96960.28;10407121;28;20291;-30
2023/05/03 16:19:42;;;;;;;6.95;2.42;;;;;;;17.92;56.61;96961.09;10405352;28;20558;-30
2023/05/03 16:24:43;;;;;;;9.82;1.70;;;;;;;17.92;56.90;96957.72;10404048;28;20040;-29
2023/05/03 16:29:43;;;;;;;3.17;1.07;;;;;;;17.91;55.63;96958.56;10406056;28;20064;-30
2023/05/03 16:34:43;;;;;;;3.95;1.50;;;;;;;17.89;55.51;96952.63;10407864;28;20124;-29
2023/05/03 16:39:44;;;;;;;2.97;1.57;;;;;;;17.90;55.38;96941.69;10407227;28;20038;-29
2023/05/03 16:44:45;;;;;;;4.35;1.67;;;;;;;17.89;55.42;96950.09;10400649;28;20037;-29
2023/05/03 16:49:45;;;;;;;4.30;1.35;;;;;;;17.88;55.43;96944.19;10407930;28;20104;-29
2023/05/03 16:54:46;;;;;;;4.23;1.80;;;;;;;17.91;57.76;96944.19;10396758;28;20507;-29
2023/05/03 16:59:46;;;;;;;5.45;1.67;;;;;;;17.98;59.58;96950.16;10399443;28;20026;-29
2023/05/03 17:04:46;;;;;;;3.40;1.73;;;;;;;18.00;58.75;96949.31;10404387;28;20087;-29
2023/05/03 17:09:47;;;;;;;5.50;1.60;;;;;;;17.93;55.94;96951.81;10403401;28;20037;-29
2023/05/03 17:14:47;;;;;;;3.73;1.40;;;;;;;17.89;55.86;96950.09;10406799;28;20029;-29
2023/05/03 17:19:50;;;;;;;2.43;1.57;;;;;;;17.88;55.48;96953.47;10407277;28;20041;-28
2023/05/03 17:24:50;;;;;;;2.17;1.13;;;;;;;17.86;55.54;96952.63;10405466;28;20493;-29
2023/05/03 17:29:50;;;;;;;1.63;1.25;;;;;;;17.84;55.66;96952.59;10406551;28;20029;-29
2023/05/03 17:34:51;;;;;;;1.27;1.13;;;;;;;17.82;55.53;96953.44;10407046;28;20037;-29
2023/05/03 17:39:51;;;;;;;1.90;1.27;;;;;;;17.81;55.48;96969.47;10406537;28;20287;-29
2023/05/03 17:44:53;;;;;;;6.27;1.63;;;;;;;17.83;57.07;96970.34;10407847;28;20124;-29
2023/05/03 17:49:54;;;;;;;3.15;1.10;;;;;;;17.83;55.67;96967.81;10414745;28;20029;-29
2023/05/03 17:54:55;;;;;;;10.77;1.90;;;;;;;17.83;57.91;96975.41;10413271;28;20041;-30
2023/05/03 17:59:56;;;;;;;4.13;2.10;;;;;;;17.96;59.78;96982.22;10413032;28;20121;-30
2023/05/03 18:04:57;;;;;;;7.70;1.90;;;;;;;18.00;59.96;96989.03;10413471;28;20523;-29
2023/05/03 18:09:58;;;;;;;6.28;1.98;;;;;;;17.92;57.35;96986.41;10411636;28;20067;-29
2023/05/03 18:14:58;;;;;;;3.10;1.35;;;;;;;17.85;56.34;96999.91;10412242;28;20029;-29
2023/05/03 18:19:59;;;;;;;2.23;1.33;;;;;;;17.83;56.20;97001.56;10413589;28;20025;-29
2023/05/03 18:25:00;;;;;;;2.75;1.13;;;;;;;17.82;55.84;97009.16;10406911;28;20497;-29
2023/05/03 18:30:01;;;;;;;3.72;1.52;;;;;;;17.81;55.80;97002.38;10407525;28;20176;-29
2023/05/03 18:35:02;;;;;;;4.80;1.30;;;;;;;17.80;55.79;97005.75;10407240;28;20033;-29
2023/05/03 18:40:03;;;;;;;1.60;1.15;;;;;;;17.79;55.83;97006.59;10406955;28;20405;-29
2023/05/03 18:45:03;;;;;;;3.90;1.05;;;;;;;17.79;55.71;97015.06;10405622;28;20037;-29
2023/05/03 18:50:04;;;;;;;1.45;0.90;;;;;;;17.77;55.69;97010.81;10407682;28;20029;-29
2023/05/03 18:55:06;;;;;;;2.85;1.88;;;;;;;17.91;59.85;97015.13;10405362;28;20079;-30
2023/05/03 19:00:08;;;;;;;3.90;1.85;;;;;;;17.97;60.50;97011.78;10406785;28;20112;-29
2023/05/03 19:05:09;;;;;;;3.22;1.70;;;;;;;17.97;58.44;97022.78;10406415;28;20463;-29
2023/05/03 19:10:09;;;;;;;2.97;1.38;;;;;;;17.88;56.97;97024.38;10405134;28;20092;-29
2023/05/03 19:15:10;;;;;;;1.80;1.17;;;;;;;17.82;56.31;97017.59;10402494;28;20021;-29
2023/05/03 19:20:11;;;;;;;2.10;1.23;;;;;;;17.80;55.93;97031.06;10406977;28;20033;-29
2023/05/03 19:25:11;;;;;;;1.85;1.30;;;;;;;17.76;55.91;97034.44;10405232;28;20037;-29
2023/05/03 19:30:12;;;;;;;3.40;1.30;;;;;;;17.77;55.64;97031.94;10403262;28;20588;-29
2023/05/03 19:35:14;;;;;;;3.22;2.15;;;;;;;17.76;55.62;97036.97;10405787;28;20268;-29
2023/05/03 19:40:15;;;;;;;1.40;0.95;;;;;;;17.75;55.81;97043.72;10406114;28;20038;-30
2023/05/03 19:45:15;;;;;;;3.92;1.65;;;;;;;17.72;56.31;97042.84;10404662;28;20038;-29
2023/05/03 19:50:16;;;;;;;2.85;1.42;;;;;;;17.79;58.00;97042.03;10405219;28;20040;-30
2023/05/03 19:55:16;;;;;;;4.45;1.50;;;;;;;17.91;60.34;97042.16;10404797;28;20044;-29
2023/05/03 20:00:19;;;;;;;2.23;1.57;;;;;;;17.95;60.36;97046.41;10404187;28;20044;-29
2023/05/03 20:05:20;;;;;;;4.88;1.85;;;;;;;17.91;58.22;97049.75;10405205;28;20299;-30
2023/05/03 20:10:20;;;;;;;3.93;1.33;;;;;;;17.82;56.60;97049.69;10401754;28;20497;-29
2023/05/03 20:15:20;;;;;;;2.07;1.30;;;;;;;17.79;56.14;97053.03;10400165;28;20307;-30
2023/05/03 20:20:21;;;;;;;2.33;1.08;;;;;;;17.76;55.99;97050.47;10404740;28;20033;-29
2023/05/03 20:25:23;;;;;;;2.42;1.05;;;;;;;17.75;55.93;97055.53;10403525;28;20088;-29
2023/05/03 20:30:24;;;;;;;1.17;1.08;;;;;;;17.75;55.66;97053.00;10398401;28;20558;-31
2023/05/03 20:35:24;;;;;;;2.53;1.10;;;;;;;17.74;55.68;97048.78;10404520;28;20037;-29
2023/05/03 20:40:25;;;;;;;1.30;1.13;;;;;;;17.73;55.39;97047.09;10409392;28;20053;-29
2023/05/03 20:45:26;;;;;;;1.48;1.10;;;;;;;17.72;55.38;97041.16;10405803;28;20505;-30
2023/05/03 20:50:27;;;;;;;2.22;1.60;;;;;;;17.80;57.52;97041.22;10406654;28;20131;-29
2023/05/03 20:55:27;;;;;;;2.67;1.63;;;;;;;17.93;60.15;97032.88;10405927;28;20032;-29
2023/05/03 21:00:28;;;;;;;2.03;1.50;;;;;;;17.96;59.32;97037.94;10407440;28;20045;-30
2023/05/03 21:05:28;;;;;;;2.55;1.50;;;;;;;17.89;56.51;97041.28;10406532;28;20037;-29
2023/05/03 21:10:28;;;;;;;1.20;1.10;;;;;;;17.87;55.88;97043.81;10403041;28;20426;-30
2023/05/03 21:15:29;;;;;;;1.13;1.03;;;;;;;17.87;55.66;97037.88;10405278;28;20048;-29
2023/05/03 21:20:29;;;;;;;1.13;0.80;;;;;;;17.86;55.60;97032.00;10409835;28;20063;-29
2023/05/03 21:25:30;;;;;;;3.63;1.10;;;;;;;17.85;55.56;97030.31;10413692;28;20037;-29
2023/05/03 21:30:30;;;;;;;4.30;1.13;;;;;;;17.86;55.66;97036.19;10412281;28;20383;-29
2023/05/03 21:35:31;;;;;;;2.37;1.77;;;;;;;17.83;55.62;97026.88;10413554;28;20033;-29
2023/05/03 21:40:31;;;;;;;1.20;0.90;;;;;;;17.83;55.66;97033.66;10413875;28;20413;-29
2023/05/03 21:45:32;;;;;;;1.80;1.10;;;;;;;17.83;55.32;97015.94;10407014;28;20057;-30
2023/05/03 21:50:36;;;;;;;2.40;1.70;;;;;;;17.87;58.66;97017.63;10414399;28;20424;-30
2023/05/03 21:55:37;;;;;;;1.95;1.80;;;;;;;17.97;62.09;97016.84;10413386;28;20033;-29
2023/05/03 22:00:39;;;;;;;4.60;1.80;;;;;;;17.99;61.98;97005.06;10413320;28;20033;-29
2023/05/03 22:05:41;;;;;;;2.65;1.20;;;;;;;17.90;57.05;97005.84;10413381;28;20044;-29
2023/05/03 22:10:41;;;;;;;3.00;1.30;;;;;;;17.88;56.80;97009.19;10411769;28;20424;-29
2023/05/03 22:15:41;;;;;;;3.13;1.10;;;;;;;17.83;56.24;96999.03;10405608;28;20037;-28
2023/05/03 22:20:42;;;;;;;1.97;1.03;;;;;;;17.81;56.02;96993.09;10413429;28;20041;-29
2023/05/03 22:25:42;;;;;;;2.83;0.83;;;;;;;17.80;56.18;96995.63;10412091;28;20838;-29
2023/05/03 22:30:43;;;;;;;1.10;1.00;;;;;;;17.80;55.95;96990.56;10411309;28;20029;-29
2023/05/03 22:35:43;;;;;;;1.75;0.80;;;;;;;17.79;55.80;96999.84;10411409;28;20049;-29
2023/05/03 22:40:43;;;;;;;1.37;1.00;;;;;;;17.79;55.89;96989.72;10412481;28;20147;-29
2023/05/03 22:45:44;;;;;;;1.30;1.00;;;;;;;17.77;55.95;96985.47;10404532;28;20096;-29
2023/05/03 22:50:44;;;;;;;2.28;1.48;;;;;;;17.78;56.62;96987.19;10409303;28;20382;-29
2023/05/03 22:55:54;;;;;;;3.40;1.63;;;;;;;17.90;66.84;96992.34;10411986;28;20401;-29
2023/05/03 23:00:54;;;;;;;4.57;1.88;;;;;;;17.95;66.19;96990.66;10410872;28;20381;-29
2023/05/03 23:05:54;;;;;;;2.43;1.57;;;;;;;17.92;61.18;97000.78;10410650;28;20235;-29
2023/05/03 23:10:58;;;;;;;1.52;1.00;;;;;;;17.85;57.88;96994.84;10411351;28;20375;-29
2023/05/03 23:15:58;;;;;;;1.88;1.60;;;;;;;17.83;57.11;96990.59;10409848;28;20404;-29
2023/05/03 23:20:59;;;;;;;1.60;1.15;;;;;;;17.79;56.66;96984.66;10411252;28;20037;-29